createdAt,value
2019-06-26T00:01:49.258Z,91.00
2019-06-26T00:04:15.617Z,91.00
2019-06-26T00:06:41.947Z,91.20
2019-06-26T00:09:08.973Z,91.30
2019-06-26T00:11:35.633Z,91.20
2019-06-26T00:14:01.852Z,91.30
2019-06-26T00:16:29.282Z,91.20
2019-06-26T00:18:55.609Z,91.10
2019-06-26T00:21:24.686Z,91.30
2019-06-26T00:23:51.031Z,91.40
2019-06-26T00:26:17.936Z,91.40
2019-06-26T00:28:45.270Z,91.50
2019-06-26T00:31:11.585Z,91.60
2019-06-26T00:33:37.942Z,91.70
2019-06-26T00:36:04.161Z,91.80
2019-06-26T00:38:30.373Z,91.80
2019-06-26T00:40:56.823Z,91.80
2019-06-26T00:43:23.217Z,91.80
2019-06-26T00:45:49.473Z,91.70
2019-06-26T00:48:15.792Z,91.70
2019-06-26T00:50:42.030Z,91.80
2019-06-26T00:53:08.258Z,91.80
2019-06-26T00:55:34.513Z,92.00
2019-06-26T00:58:00.831Z,92.00
2019-06-26T01:00:39.829Z,92.20
2019-06-26T01:03:06.051Z,92.10
2019-06-26T01:05:32.370Z,92.20
2019-06-26T01:07:58.611Z,92.30
2019-06-26T01:10:24.959Z,92.40
2019-06-26T01:12:53.857Z,92.50
2019-06-26T01:15:20.228Z,92.80
2019-06-26T01:17:46.633Z,92.60
2019-06-26T01:20:13.244Z,92.60
2019-06-26T01:22:39.491Z,92.60
2019-06-26T01:25:06.010Z,92.50
2019-06-26T01:27:32.332Z,92.60
2019-06-26T01:29:58.693Z,92.50
2019-06-26T01:32:24.917Z,92.50
2019-06-26T01:34:51.292Z,92.50
2019-06-26T01:37:17.600Z,92.50
2019-06-26T01:39:43.847Z,92.50
2019-06-26T01:42:10.217Z,92.50
2019-06-26T01:44:36.573Z,92.60
2019-06-26T01:47:03.231Z,92.60
2019-06-26T01:49:29.533Z,92.60
2019-06-26T01:51:55.784Z,92.50
2019-06-26T01:54:22.105Z,92.30
2019-06-26T01:56:48.445Z,91.50
2019-06-26T01:59:14.685Z,91.90
2019-06-26T02:01:40.913Z,92.10
2019-06-26T02:04:07.140Z,91.70
2019-06-26T02:06:33.382Z,92.00
2019-06-26T02:08:59.602Z,92.10
2019-06-26T02:11:25.824Z,92.20
2019-06-26T02:13:52.066Z,92.40
2019-06-26T02:16:18.471Z,92.60
2019-06-26T02:18:55.745Z,92.20
2019-06-26T02:21:22.041Z,91.60
2019-06-26T02:23:48.262Z,91.00
2019-06-26T02:26:14.519Z,91.80
2019-06-26T02:28:40.745Z,92.00
2019-06-26T02:31:06.971Z,92.10
2019-06-26T02:33:34.419Z,92.00
2019-06-26T02:36:00.933Z,92.00
2019-06-26T02:38:27.265Z,92.00
2019-06-26T02:40:53.610Z,92.10
2019-06-26T02:43:20.408Z,92.10
2019-06-26T02:45:46.673Z,92.30
2019-06-26T02:48:13.006Z,92.20
2019-06-26T02:50:39.337Z,92.30
2019-06-26T02:53:05.749Z,92.20
2019-06-26T02:55:31.984Z,91.50
2019-06-26T02:57:58.228Z,91.30
2019-06-26T03:00:24.547Z,91.40
2019-06-26T03:02:50.890Z,91.60
2019-06-26T03:05:17.333Z,91.80
2019-06-26T03:07:43.667Z,92.00
2019-06-26T03:10:10.602Z,92.00
2019-06-26T03:12:36.922Z,92.00
2019-06-26T03:15:09.412Z,92.00
2019-06-26T03:17:33.548Z,91.70
2019-06-26T03:19:59.887Z,91.80
2019-06-26T03:22:26.201Z,92.00
2019-06-26T03:24:52.450Z,92.00
2019-06-26T03:27:18.666Z,92.10
2019-06-26T03:29:44.901Z,91.90
2019-06-26T03:32:11.245Z,92.10
2019-06-26T03:34:37.473Z,92.20
2019-06-26T03:37:03.706Z,92.30
2019-06-26T03:39:31.088Z,92.40
2019-06-26T03:41:58.377Z,92.30
2019-06-26T03:44:24.611Z,92.50
2019-06-26T03:46:50.917Z,92.20
2019-06-26T03:49:17.405Z,92.00
2019-06-26T03:51:43.729Z,92.00
2019-06-26T03:54:09.961Z,92.30
2019-06-26T03:56:36.191Z,92.00
2019-06-26T03:59:02.578Z,92.20
2019-06-26T04:01:28.963Z,92.00
2019-06-26T04:03:57.357Z,91.90
2019-06-26T04:06:23.364Z,91.70
2019-06-26T04:08:49.602Z,92.00
2019-06-26T04:11:15.953Z,92.30
2019-06-26T04:13:42.185Z,92.20
2019-06-26T04:16:08.531Z,92.40
2019-06-26T04:18:34.810Z,92.40
2019-06-26T04:21:01.038Z,92.40
2019-06-26T04:23:27.393Z,91.90
2019-06-26T04:25:53.618Z,92.10
2019-06-26T04:28:20.149Z,92.20
2019-06-26T04:30:46.485Z,91.80
2019-06-26T04:33:12.805Z,92.00
2019-06-26T04:35:39.041Z,92.00
2019-06-26T04:38:05.381Z,92.10
2019-06-26T04:40:31.589Z,91.90
2019-06-26T04:42:57.902Z,91.20
2019-06-26T04:45:24.244Z,91.40
2019-06-26T04:47:50.566Z,91.40
2019-06-26T04:50:17.531Z,91.20
2019-06-26T04:52:43.864Z,90.90
2019-06-26T04:55:10.509Z,90.90
2019-06-26T04:57:36.850Z,91.30
2019-06-26T05:00:05.493Z,91.40
2019-06-26T05:02:31.819Z,91.50
2019-06-26T05:04:58.045Z,91.50
2019-06-26T05:07:24.370Z,91.30
2019-06-26T05:09:50.604Z,91.10
2019-06-26T05:12:16.837Z,91.00
2019-06-26T05:14:43.086Z,91.20
2019-06-26T05:17:09.516Z,91.10
2019-06-26T05:19:35.900Z,90.90
2019-06-26T05:22:02.907Z,90.80
2019-06-26T05:24:29.213Z,90.50
2019-06-26T05:26:55.455Z,90.70
2019-06-26T05:29:22.007Z,90.70
2019-06-26T05:31:48.330Z,90.90
2019-06-26T05:34:14.569Z,90.40
2019-06-26T05:36:40.909Z,90.80
2019-06-26T05:39:07.225Z,90.80
2019-06-26T05:41:33.569Z,90.60
2019-06-26T05:44:00.214Z,90.10
2019-06-26T05:46:31.021Z,90.00
2019-06-26T05:48:54.649Z,90.30
2019-06-26T05:51:20.918Z,90.00
2019-06-26T05:53:49.887Z,89.60
2019-06-26T05:56:16.122Z,89.80
2019-06-26T05:58:42.364Z,89.30
2019-06-26T06:01:09.885Z,90.10
2019-06-26T06:03:36.098Z,89.10
2019-06-26T06:06:02.530Z,88.70
2019-06-26T06:08:28.853Z,88.40
2019-06-26T06:10:58.172Z,88.50
2019-06-26T06:13:23.234Z,87.50
2019-06-26T06:15:49.462Z,87.10
2019-06-26T06:18:15.697Z,84.80
2019-06-26T06:20:42.049Z,83.30
2019-06-26T06:23:08.369Z,81.60
2019-06-26T06:25:34.695Z,80.60
2019-06-26T06:28:01.549Z,80.90
2019-06-26T06:30:27.893Z,81.40
2019-06-26T06:32:54.226Z,78.80
2019-06-26T06:35:20.488Z,77.00
2019-06-26T06:37:46.711Z,76.90
2019-06-26T06:40:13.251Z,75.90
2019-06-26T06:42:39.637Z,74.50
2019-06-26T06:45:06.534Z,74.90
2019-06-26T06:47:32.749Z,73.70
2019-06-26T06:49:58.983Z,69.60
2019-06-26T06:52:25.194Z,70.00
2019-06-26T06:54:51.604Z,69.70
2019-06-26T06:57:17.925Z,69.70
2019-06-26T06:59:45.164Z,70.00
2019-06-26T07:02:11.448Z,68.20
2019-06-26T07:04:38.827Z,66.70
2019-06-26T07:07:05.049Z,68.90
2019-06-26T07:09:31.363Z,69.10
2019-06-26T07:11:57.614Z,70.20
2019-06-26T07:14:23.921Z,70.50
2019-06-26T07:16:50.156Z,71.50
2019-06-26T07:19:16.405Z,72.40
2019-06-26T07:21:42.645Z,72.90
2019-06-26T07:24:08.986Z,71.00
2019-06-26T07:26:35.318Z,70.90
2019-06-26T07:29:01.694Z,70.30
2019-06-26T07:31:27.921Z,69.50
2019-06-26T07:33:55.661Z,69.20
2019-06-26T07:36:22.279Z,68.60
2019-06-26T07:38:48.778Z,69.60
2019-06-26T07:41:15.045Z,70.80
2019-06-26T07:43:41.269Z,72.00
2019-06-26T07:46:07.501Z,71.90
2019-06-26T07:48:33.761Z,72.60
2019-06-26T07:50:59.983Z,71.90
2019-06-26T07:53:26.212Z,70.10
2019-06-26T07:55:52.518Z,70.40
2019-06-26T07:58:18.860Z,70.40
2019-06-26T08:00:45.103Z,72.10
2019-06-26T08:03:11.435Z,69.60
2019-06-26T08:05:37.765Z,69.40
2019-06-26T08:08:04.094Z,70.30
2019-06-26T08:10:30.543Z,71.30
2019-06-26T08:12:56.865Z,69.20
2019-06-26T08:15:23.279Z,68.20
2019-06-26T08:17:59.976Z,68.90
2019-06-26T08:20:17.843Z,67.50
2019-06-26T08:22:44.251Z,66.20
2019-06-26T08:25:10.730Z,63.40
2019-06-26T08:27:37.051Z,64.10
2019-06-26T08:30:05.795Z,65.10
2019-06-26T08:32:32.220Z,63.90
2019-06-26T08:34:58.429Z,64.10
2019-06-26T08:37:25.861Z,66.20
2019-06-26T08:39:52.091Z,66.90
2019-06-26T08:42:18.417Z,68.10
2019-06-26T08:44:44.722Z,68.10
2019-06-26T08:47:10.969Z,68.50
2019-06-26T08:49:37.291Z,69.30
2019-06-26T08:52:03.820Z,70.40
2019-06-26T08:54:30.161Z,71.30
2019-06-26T08:56:56.489Z,71.50
2019-06-26T08:59:22.811Z,72.30
2019-06-26T09:01:49.151Z,72.10
2019-06-26T09:04:15.376Z,72.80
2019-06-26T09:06:41.720Z,70.10
2019-06-26T09:09:08.052Z,69.70
2019-06-26T09:11:34.503Z,68.60
2019-06-26T09:14:00.886Z,69.30
2019-06-26T09:16:27.137Z,67.70
2019-06-26T09:18:53.426Z,67.50
2019-06-26T09:21:19.754Z,68.40
2019-06-26T09:23:46.082Z,68.70
2019-06-26T09:26:12.416Z,67.50
2019-06-26T09:28:38.829Z,65.50
2019-06-26T09:31:05.277Z,65.30
2019-06-26T09:33:32.781Z,64.80
2019-06-26T09:35:59.125Z,64.10
2019-06-26T09:38:25.469Z,64.80
2019-06-26T09:40:51.897Z,63.50
2019-06-26T09:43:18.221Z,62.50
2019-06-26T09:45:44.855Z,62.50
2019-06-26T09:48:11.115Z,63.00
2019-06-26T09:50:37.355Z,65.90
2019-06-26T09:53:05.397Z,66.00
2019-06-26T09:55:31.929Z,63.30
2019-06-26T09:57:58.390Z,63.50
2019-06-26T10:00:26.241Z,65.10
2019-06-26T10:02:52.651Z,64.80
2019-06-26T10:05:19.076Z,63.00
2019-06-26T10:07:45.456Z,64.30
2019-06-26T10:10:13.372Z,63.20
2019-06-26T10:12:39.704Z,64.10
2019-06-26T10:15:06.255Z,65.30
2019-06-26T10:17:32.569Z,65.00
2019-06-26T10:19:58.820Z,66.30
2019-06-26T10:22:25.138Z,66.40
2019-06-26T10:24:53.992Z,67.10
2019-06-26T10:27:21.409Z,66.80
2019-06-26T10:29:48.853Z,66.50
2019-06-26T10:32:15.162Z,68.40
2019-06-26T10:34:42.549Z,69.00
2019-06-26T10:37:08.793Z,69.00
2019-06-26T10:39:35.106Z,69.50
2019-06-26T10:42:01.328Z,69.80
2019-06-26T10:44:27.658Z,70.10
2019-06-26T10:46:54.001Z,70.70
2019-06-26T10:49:27.093Z,69.80
2019-06-26T10:51:48.325Z,69.60
2019-06-26T10:54:14.556Z,69.60
2019-06-26T10:56:40.882Z,68.70
2019-06-26T10:59:07.217Z,70.30
2019-06-26T11:01:33.838Z,68.40
2019-06-26T11:04:00.053Z,69.40
2019-06-26T11:06:26.379Z,67.90
2019-06-26T11:08:52.703Z,69.30
2019-06-26T11:11:19.026Z,69.50
2019-06-26T11:13:45.371Z,71.00
2019-06-26T11:16:11.681Z,72.40
2019-06-26T11:18:38.012Z,71.80
2019-06-26T11:21:04.469Z,71.90
2019-06-26T11:23:30.777Z,72.30
2019-06-26T11:25:57.006Z,73.20
2019-06-26T11:28:23.513Z,73.30
2019-06-26T11:30:49.894Z,73.00
2019-06-26T11:33:16.195Z,73.90
2019-06-26T11:35:42.582Z,74.80
2019-06-26T11:38:08.793Z,75.20
2019-06-26T11:40:36.111Z,75.30
2019-06-26T11:43:02.449Z,75.10
2019-06-26T11:45:28.696Z,75.10
2019-06-26T11:47:54.905Z,74.30
2019-06-26T11:50:23.157Z,74.40
2019-06-26T11:52:49.378Z,74.40
2019-06-26T11:55:16.916Z,74.70
2019-06-26T11:57:43.639Z,75.20
2019-06-26T12:00:12.254Z,73.50
2019-06-26T12:02:38.475Z,74.00
2019-06-26T12:05:05.942Z,73.70
2019-06-26T12:07:32.389Z,74.00
2019-06-26T12:09:58.686Z,73.10
2019-06-26T12:12:25.152Z,74.50
2019-06-26T12:14:53.037Z,70.80
2019-06-26T12:17:19.368Z,69.20
2019-06-26T12:19:45.629Z,69.20
2019-06-26T12:22:11.960Z,69.90
2019-06-26T12:24:38.283Z,69.50
2019-06-26T12:27:04.636Z,69.70
2019-06-26T12:29:33.010Z,70.20
2019-06-26T12:31:58.834Z,68.90
2019-06-26T12:34:25.081Z,67.00
2019-06-26T12:36:52.667Z,67.70
2019-06-26T12:39:18.998Z,64.50
2019-06-26T12:41:45.338Z,65.10
2019-06-26T12:44:11.553Z,62.70
2019-06-26T12:46:37.882Z,63.60
2019-06-26T12:49:04.410Z,63.40
2019-06-26T12:51:30.647Z,64.00
2019-06-26T12:53:58.636Z,63.30
2019-06-26T12:56:25.042Z,61.00
2019-06-26T12:58:54.455Z,60.90
2019-06-26T13:01:20.750Z,63.60
2019-06-26T13:03:46.983Z,61.10
2019-06-26T13:06:13.315Z,60.90
2019-06-26T13:08:39.643Z,62.00
2019-06-26T13:11:05.940Z,63.20
2019-06-26T13:13:32.153Z,63.90
2019-06-26T13:15:58.384Z,62.30
2019-06-26T13:18:24.741Z,61.80
2019-06-26T13:20:53.170Z,61.90
2019-06-26T13:23:19.297Z,61.50
2019-06-26T13:25:45.597Z,62.30
2019-06-26T13:28:11.813Z,61.30
2019-06-26T13:30:38.239Z,62.80
2019-06-26T13:33:05.058Z,59.90
2019-06-26T13:35:31.340Z,60.30
2019-06-26T13:37:57.605Z,58.20
2019-06-26T13:40:23.933Z,58.00
2019-06-26T13:42:50.325Z,57.90
2019-06-26T13:45:16.693Z,59.10
2019-06-26T13:47:42.917Z,59.70
2019-06-26T13:50:10.171Z,61.60
2019-06-26T13:52:36.486Z,60.10
2019-06-26T13:55:04.148Z,61.00
2019-06-26T13:57:30.469Z,60.80
2019-06-26T13:59:56.705Z,58.10
2019-06-26T14:02:23.037Z,58.30
2019-06-26T14:04:49.345Z,59.40
2019-06-26T14:07:15.675Z,57.40
2019-06-26T14:09:41.942Z,55.20
2019-06-26T14:12:08.316Z,55.20
2019-06-26T14:14:55.877Z,56.90
2019-06-26T14:17:02.922Z,56.60
2019-06-26T14:19:29.244Z,56.10
2019-06-26T14:21:55.477Z,56.00
2019-06-26T14:24:24.328Z,57.00
2019-06-26T14:26:50.643Z,56.20
2019-06-26T14:29:20.861Z,56.50
2019-06-26T14:31:45.087Z,54.10
2019-06-26T14:34:11.295Z,52.40
2019-06-26T14:36:37.625Z,52.80
2019-06-26T14:39:05.071Z,54.20
2019-06-26T14:41:32.293Z,54.00
2019-06-26T14:43:58.509Z,53.90
2019-06-26T14:46:24.749Z,54.60
2019-06-26T14:48:50.969Z,54.50
2019-06-26T14:51:17.192Z,54.30
2019-06-26T14:53:43.468Z,55.00
2019-06-26T14:56:09.761Z,53.70
2019-06-26T14:58:36.459Z,54.00
2019-06-26T15:01:02.825Z,55.60
2019-06-26T15:03:29.059Z,54.60
2019-06-26T15:05:55.289Z,55.60
2019-06-26T15:08:21.859Z,56.20
2019-06-26T15:10:48.074Z,57.20
2019-06-26T15:13:14.389Z,57.30
2019-06-26T15:15:40.647Z,57.80
2019-06-26T15:18:06.957Z,57.80
2019-06-26T15:20:33.277Z,58.10
2019-06-26T15:22:59.509Z,59.10
2019-06-26T15:25:25.721Z,59.00
2019-06-26T15:27:52.135Z,59.30
2019-06-26T15:30:19.125Z,59.10
2019-06-26T15:32:45.518Z,58.90
2019-06-26T15:35:12.276Z,57.70
2019-06-26T15:37:38.628Z,57.90
2019-06-26T15:40:06.043Z,57.20
2019-06-26T15:42:32.474Z,56.20
2019-06-26T15:44:58.818Z,54.80
2019-06-26T15:47:25.115Z,54.80
2019-06-26T15:49:51.463Z,52.80
2019-06-26T15:52:17.840Z,51.70
2019-06-26T15:54:44.098Z,52.10
2019-06-26T15:57:10.406Z,52.80
2019-06-26T15:59:36.685Z,53.50
2019-06-26T16:02:03.001Z,53.60
2019-06-26T16:04:29.337Z,53.30
2019-06-26T16:06:55.582Z,53.40
2019-06-26T16:09:21.981Z,52.70
2019-06-26T16:11:48.291Z,53.20
2019-06-26T16:14:14.639Z,54.00
2019-06-26T16:16:42.856Z,52.80
2019-06-26T16:19:10.855Z,52.70
2019-06-26T16:21:37.101Z,53.60
2019-06-26T16:24:03.625Z,52.80
2019-06-26T16:26:29.948Z,52.90
2019-06-26T16:28:56.193Z,53.10
2019-06-26T16:31:22.497Z,52.90
2019-06-26T16:33:48.735Z,54.10
2019-06-26T16:36:14.974Z,53.00
2019-06-26T16:38:41.193Z,52.40
2019-06-26T16:41:07.413Z,50.80
2019-06-26T16:43:33.648Z,51.20
2019-06-26T16:45:59.861Z,50.90
2019-06-26T16:48:26.097Z,51.20
2019-06-26T16:50:52.353Z,52.40
2019-06-26T16:53:18.581Z,51.90
2019-06-26T16:55:44.827Z,51.70
2019-06-26T16:58:11.166Z,53.70
2019-06-26T17:00:37.473Z,53.30
2019-06-26T17:03:03.903Z,52.60
2019-06-26T17:05:30.158Z,52.20
2019-06-26T17:07:56.544Z,52.00
2019-06-26T17:10:22.918Z,52.30
2019-06-26T17:12:49.152Z,52.50
2019-06-26T17:15:15.678Z,52.30
2019-06-26T17:17:42.113Z,52.40
2019-06-26T17:20:08.966Z,52.60
2019-06-26T17:22:35.483Z,53.20
2019-06-26T17:25:04.413Z,53.70
2019-06-26T17:27:30.672Z,52.90
2019-06-26T17:29:56.981Z,52.80
2019-06-26T17:32:23.201Z,52.50
2019-06-26T17:34:49.455Z,53.60
2019-06-26T17:37:15.677Z,53.50
2019-06-26T17:39:41.905Z,54.10
2019-06-26T17:42:08.143Z,54.30
2019-06-26T17:44:34.452Z,54.60
2019-06-26T17:47:00.669Z,54.60
2019-06-26T17:49:26.918Z,55.10
2019-06-26T17:51:53.173Z,56.00
2019-06-26T17:54:19.397Z,55.60
2019-06-26T17:56:45.725Z,55.40
2019-06-26T17:59:11.986Z,56.10
2019-06-26T18:01:38.311Z,57.30
2019-06-26T18:04:06.065Z,57.30
2019-06-26T18:06:32.533Z,56.90
2019-06-26T18:08:58.746Z,56.70
2019-06-26T18:11:25.097Z,57.10
2019-06-26T18:13:51.393Z,56.90
2019-06-26T18:16:17.716Z,57.60
2019-06-26T18:18:43.960Z,57.30
2019-06-26T18:21:10.180Z,57.60
2019-06-26T18:23:38.458Z,58.20
2019-06-26T18:26:13.232Z,58.50
2019-06-26T18:28:32.872Z,59.20
2019-06-26T18:30:59.121Z,58.60
2019-06-26T18:33:25.452Z,57.90
2019-06-26T18:35:51.965Z,57.90
2019-06-26T18:38:18.308Z,57.70
2019-06-26T18:40:44.639Z,57.00
2019-06-26T18:43:10.962Z,57.40
2019-06-26T18:45:37.202Z,58.00
2019-06-26T18:48:03.550Z,57.40
2019-06-26T18:50:29.845Z,57.30
2019-06-26T18:52:56.067Z,56.30
2019-06-26T18:55:23.046Z,56.70
2019-06-26T18:57:49.342Z,56.80
2019-06-26T19:00:15.961Z,56.40
2019-06-26T19:02:42.289Z,56.00
2019-06-26T19:05:09.305Z,55.90
2019-06-26T19:07:35.538Z,55.10
2019-06-26T19:10:04.281Z,54.80
2019-06-26T19:12:30.522Z,55.00
2019-06-26T19:14:56.743Z,55.10
2019-06-26T19:17:23.082Z,55.70
2019-06-26T19:19:49.337Z,56.10
2019-06-26T19:22:15.628Z,56.30
2019-06-26T19:24:41.968Z,52.40
2019-06-26T19:27:08.197Z,45.90
2019-06-26T19:29:34.519Z,46.10
2019-06-26T19:32:00.866Z,48.60
2019-06-26T19:34:27.081Z,45.80
2019-06-26T19:36:53.301Z,47.30
2019-06-26T19:39:20.925Z,46.90
2019-06-26T19:41:47.422Z,46.00
2019-06-26T19:44:13.749Z,45.60
2019-06-26T19:46:42.013Z,46.10
2019-06-26T19:49:08.178Z,46.20
2019-06-26T19:51:34.404Z,45.60
2019-06-26T19:54:00.637Z,45.10
2019-06-26T19:56:26.854Z,44.70
2019-06-26T19:58:53.137Z,44.20
2019-06-26T20:01:19.378Z,45.10
2019-06-26T20:03:45.597Z,45.50
2019-06-26T20:06:11.835Z,45.40
2019-06-26T20:08:51.691Z,45.70
2019-06-26T20:11:06.078Z,46.50
2019-06-26T20:13:32.401Z,47.40
2019-06-26T20:15:58.638Z,46.90
2019-06-26T20:18:25.058Z,47.40
2019-06-26T20:20:51.618Z,47.10
2019-06-26T20:23:17.870Z,46.90
2019-06-26T20:25:44.089Z,47.60
2019-06-26T20:28:10.305Z,47.30
2019-06-26T20:30:36.529Z,47.90
2019-06-26T20:33:02.850Z,48.70
2019-06-26T20:35:31.832Z,48.70
2019-06-26T20:37:57.105Z,49.10
2019-06-26T20:40:23.325Z,49.50
2019-06-26T20:42:50.637Z,50.10
2019-06-26T20:45:17.792Z,50.00
2019-06-26T20:47:44.015Z,50.00
2019-06-26T20:50:10.434Z,50.10
2019-06-26T20:52:36.661Z,49.30
2019-06-26T20:55:04.185Z,48.70
2019-06-26T20:57:30.501Z,48.30
2019-06-26T20:59:57.897Z,48.40
2019-06-26T21:02:24.109Z,48.10
2019-06-26T21:04:51.436Z,47.80
2019-06-26T21:07:17.737Z,47.90
2019-06-26T21:09:43.958Z,48.00
2019-06-26T21:12:10.528Z,48.00
2019-06-26T21:14:38.079Z,48.10
2019-06-26T21:17:04.433Z,47.70
2019-06-26T21:19:30.658Z,48.10
2019-06-26T21:21:56.994Z,47.70
2019-06-26T21:24:23.216Z,48.10
2019-06-26T21:26:49.444Z,47.90
2019-06-26T21:29:15.691Z,48.30
2019-06-26T21:31:42.044Z,48.50
2019-06-26T21:34:08.389Z,49.20
2019-06-26T21:36:34.720Z,49.20
2019-06-26T21:39:00.960Z,49.20
2019-06-26T21:41:27.190Z,49.00
2019-06-26T21:43:53.449Z,49.20
2019-06-26T21:46:19.787Z,49.60
2019-06-26T21:48:46.023Z,49.70
2019-06-26T21:51:12.263Z,49.40
2019-06-26T21:53:38.507Z,50.20
2019-06-26T21:56:23.569Z,50.00
2019-06-26T21:59:08.281Z,49.70
2019-06-26T22:01:53.875Z,49.40
2019-06-26T22:04:38.695Z,49.10
2019-06-26T22:07:25.488Z,49.00
2019-06-26T22:10:10.708Z,49.10
2019-06-26T22:12:38.977Z,49.50
2019-06-26T22:15:05.993Z,49.80
2019-06-26T22:17:33.798Z,49.50
2019-06-26T22:20:00.034Z,49.00
2019-06-26T22:22:26.362Z,49.00
2019-06-26T22:24:52.701Z,49.30
2019-06-26T22:27:20.059Z,49.30
2019-06-26T22:29:46.391Z,49.80
2019-06-26T22:32:12.765Z,50.00
2019-06-26T22:34:38.999Z,49.60
2019-06-26T22:37:05.345Z,50.10
2019-06-26T22:39:31.556Z,49.70
2019-06-26T22:41:57.807Z,50.10
2019-06-26T22:44:24.118Z,50.20
2019-06-26T22:46:50.409Z,50.50
2019-06-26T22:49:16.655Z,50.60
2019-06-26T22:51:42.874Z,50.40
2019-06-26T22:54:09.099Z,50.50
2019-06-26T22:56:35.622Z,50.50
2019-06-26T22:59:01.953Z,50.80
2019-06-26T23:01:28.384Z,50.60
2019-06-26T23:03:55.850Z,50.70
2019-06-26T23:06:22.322Z,50.80
2019-06-26T23:08:48.652Z,51.00
2019-06-26T23:11:16.012Z,50.80
2019-06-26T23:13:42.331Z,50.60
2019-06-26T23:16:08.756Z,50.60
2019-06-26T23:18:34.995Z,51.40
2019-06-26T23:21:01.324Z,50.90
2019-06-26T23:23:27.647Z,51.20
2019-06-26T23:25:54.697Z,51.50
2019-06-26T23:28:21.129Z,51.60
2019-06-26T23:30:47.503Z,51.50
2019-06-26T23:33:13.739Z,51.20
2019-06-26T23:35:39.978Z,51.70
2019-06-26T23:38:06.298Z,52.00
2019-06-26T23:40:32.947Z,52.00
2019-06-26T23:42:59.275Z,52.20
2019-06-26T23:45:25.522Z,52.50
2019-06-26T23:47:51.919Z,52.10
2019-06-26T23:50:18.234Z,52.30
2019-06-26T23:52:44.462Z,52.80
2019-06-26T23:55:10.918Z,52.70
2019-06-26T23:57:48.673Z,52.60
